Air Navigation Services of Czech Republic
Airport: LKMT Updated:  23.09.2020 05:30:25  UTC
 METAR LKMT 23.09. 05:30 ...
METAR LKMT 230530Z 24003KT CAVOK 11/09 Q1010 NOSIG RMK REG QNH 1006=
 TAF LKMT 23.09. 05:00 ...
TAF LKMT 230500Z 2306/2412 20006KT CAVOK      TEMPO 2310/2316 18014KT      TEMPO 2318/2401 7000 SHRA SCT027CB BKN035      TEMPO 2403/2408 3000 BR BKN010      TEMPO 2409/2412 22016KT=